Time;durP1;ratioP1;P1;durP2;ratioP2;P2;SDS_P1;SDS_P2;PMS_P1;PMS_P2;Temp;Humidity;BMP_temperature;BMP_pressure;BME280_temperature;BME280_humidity;BME280_pressure;Samples;Min_cycle;Max_cycle;Signal;HPM_P1;HPM_P2
2022/10/14 00:03:00;;;;;;;12.00;8.45;;;;;;;13.10;100.00;100523.53;20485870;28;20461;-73
2022/10/14 00:13:01;;;;;;;18.50;10.07;;;;;;;13.09;100.00;100531.44;20486008;28;20125;-73
2022/10/14 00:23:02;;;;;;;16.02;8.50;;;;;;;13.09;100.00;100537.56;20485878;29;20058;-74
2022/10/14 00:33:04;;;;;;;16.58;9.40;;;;;;;13.11;100.00;100534.91;20486101;29;20055;-74
2022/10/14 00:43:05;;;;;;;15.90;9.70;;;;;;;13.13;100.00;100542.75;20483783;28;20055;-75
2022/10/14 00:53:06;;;;;;;21.05;10.60;;;;;;;13.20;100.00;100544.34;20485419;29;20117;-75
2022/10/14 01:03:08;;;;;;;20.35;11.02;;;;;;;13.17;100.00;100523.38;20482959;28;20055;-75
2022/10/14 01:13:10;;;;;;;17.50;11.05;;;;;;;13.12;100.00;100533.13;20491149;28;20055;-74
2022/10/14 01:23:11;;;;;;;22.08;11.93;;;;;;;13.07;100.00;100530.59;20498824;28;20079;-75
2022/10/14 01:33:12;;;;;;;18.92;10.68;;;;;;;13.05;100.00;100519.28;20500303;28;20075;-74
2022/10/14 01:43:14;;;;;;;18.13;9.98;;;;;;;13.08;100.00;100514.81;20497418;28;20085;-75
2022/10/14 01:53:15;;;;;;;16.70;8.93;;;;;;;13.07;100.00;100510.44;20495973;28;20155;-74
2022/10/14 02:03:17;;;;;;;20.80;10.30;;;;;;;13.05;100.00;100499.13;20494203;28;20075;-75
2022/10/14 02:13:18;;;;;;;17.52;8.88;;;;;;;13.06;100.00;100478.94;20494576;28;20191;-75
2022/10/14 02:23:19;;;;;;;17.23;10.20;;;;;;;13.00;100.00;100458.94;20494312;28;20055;-74
2022/10/14 02:33:20;;;;;;;17.95;11.13;;;;;;;12.95;100.00;100447.69;20493223;29;20106;-75
2022/10/14 02:43:22;;;;;;;15.55;10.15;;;;;;;12.95;100.00;100455.56;20492768;29;20155;-75
2022/10/14 02:53:23;;;;;;;18.90;10.63;;;;;;;12.92;100.00;100437.22;20492156;28;20086;-75
2022/10/14 03:03:24;;;;;;;22.10;11.95;;;;;;;12.89;100.00;100418.94;20490221;28;20071;-74
2022/10/14 03:13:26;;;;;;;19.13;11.68;;;;;;;12.86;100.00;100411.09;20491236;28;20604;-74
2022/10/14 03:23:27;;;;;;;19.20;11.05;;;;;;;12.84;100.00;100397.16;20491154;28;20059;-74
2022/10/14 03:33:29;;;;;;;22.45;12.07;;;;;;;12.90;100.00;100391.75;20491554;28;20658;-74
2022/10/14 03:43:34;;;;;;;23.92;13.60;;;;;;;12.88;100.00;100388.28;20492069;28;20491;-75
2022/10/14 03:53:35;;;;;;;21.77;12.05;;;;;;;12.81;100.00;100386.72;20487935;29;20584;-74
2022/10/14 04:03:36;;;;;;;22.67;12.68;;;;;;;12.75;100.00;100368.50;20507615;23;20054;-72
2022/10/14 04:13:38;;;;;;;23.25;14.15;;;;;;;12.58;100.00;100353.97;20486308;29;20114;-73
2022/10/14 04:23:39;;;;;;;18.42;11.90;;;;;;;12.23;100.00;100353.97;20486382;29;20126;-72
2022/10/14 04:33:40;;;;;;;24.23;12.88;;;;;;;12.02;100.00;100352.69;20488839;28;20145;-73
2022/10/14 04:43:42;;;;;;;25.67;13.20;;;;;;;12.05;100.00;100347.38;20488784;28;20049;-72
2022/10/14 04:53:43;;;;;;;22.25;11.50;;;;;;;12.11;100.00;100322.75;20504684;28;20090;-73
2022/10/14 05:03:44;;;;;;;20.85;11.63;;;;;;;12.05;100.00;100302.78;20498323;28;20101;-71
2022/10/14 05:13:45;;;;;;;21.17;11.30;;;;;;;12.08;100.00;100307.97;20499617;28;20628;-74
2022/10/14 05:23:47;;;;;;;20.20;10.75;;;;;;;12.12;100.00;100282.47;20498825;28;20484;-72
2022/10/14 05:33:48;;;;;;;17.58;10.85;;;;;;;12.15;100.00;100282.41;20498363;28;20075;-73
2022/10/14 05:43:50;;;;;;;26.20;10.98;;;;;;;12.19;100.00;100291.94;20496117;28;20539;-75
2022/10/14 05:53:51;;;;;;;18.05;10.05;;;;;;;12.27;100.00;100288.25;20495749;28;20091;-74
2022/10/14 06:03:52;;;;;;;38.05;13.05;;;;;;;12.37;100.00;100286.25;20499141;28;20142;-74
2022/10/14 06:13:53;;;;;;;22.08;10.68;;;;;;;12.39;100.00;100284.44;20495119;28;20067;-72
2022/10/14 06:23:55;;;;;;;23.10;12.35;;;;;;;12.55;100.00;100288.44;20495949;28;20146;-73
2022/10/14 06:33:56;;;;;;;23.63;13.70;;;;;;;12.73;100.00;100291.47;20492228;28;20492;-74
2022/10/14 06:43:57;;;;;;;21.80;13.20;;;;;;;12.86;100.00;100290.22;20492440;28;20106;-72
2022/10/14 06:53:59;;;;;;;18.58;11.70;;;;;;;13.12;100.00;100286.03;20489105;28;20483;-73
2022/10/14 07:04:00;;;;;;;18.38;10.10;;;;;;;13.24;100.00;100283.09;20486381;28;20146;-76
2022/10/14 07:14:02;;;;;;;18.70;9.93;;;;;;;13.45;100.00;100282.47;20488256;28;20058;-73
2022/10/14 07:24:03;;;;;;;16.00;9.00;;;;;;;13.59;100.00;100279.41;20486142;28;20142;-74
2022/10/14 07:34:04;;;;;;;15.45;8.98;;;;;;;13.77;100.00;100281.50;20489528;28;20113;-74
2022/10/14 07:44:07;;;;;;;13.90;7.82;;;;;;;13.89;100.00;100282.03;20486591;28;20059;-72
2022/10/14 07:54:09;;;;;;;15.00;8.38;;;;;;;14.03;100.00;100291.19;20487072;29;20142;-73
2022/10/14 08:04:10;;;;;;;12.50;7.20;;;;;;;14.28;100.00;100288.66;20481357;28;20083;-73
2022/10/14 08:14:12;;;;;;;11.82;6.50;;;;;;;14.47;100.00;100274.84;20472252;28;20086;-75
2022/10/14 08:24:13;;;;;;;9.63;6.32;;;;;;;14.71;100.00;100278.47;20476178;28;20677;-72
2022/10/14 08:34:15;;;;;;;14.63;7.20;;;;;;;14.83;100.00;100273.63;20480199;28;20544;-75
2022/10/14 08:44:16;;;;;;;15.13;6.95;;;;;;;15.20;100.00;100282.00;20476979;28;20074;-72
2022/10/14 08:54:17;;;;;;;12.30;7.28;;;;;;;15.47;100.00;100265.13;20477020;28;20182;-73
2022/10/14 09:04:19;;;;;;;18.73;9.77;;;;;;;15.36;100.00;100272.59;20474514;28;20090;-72
2022/10/14 09:14:20;;;;;;;17.80;10.15;;;;;;;15.59;100.00;100262.03;20476694;28;20087;-76
2022/10/14 09:24:21;;;;;;;18.00;9.57;;;;;;;15.96;100.00;100250.06;20468374;28;20130;-72
2022/10/14 09:34:23;;;;;;;14.18;8.45;;;;;;;16.26;100.00;100240.03;20488123;28;20661;-72
2022/10/14 09:44:24;;;;;;;10.85;7.25;;;;;;;16.38;100.00;100233.34;20495859;28;20459;-73
2022/10/14 09:54:26;;;;;;;17.10;8.35;;;;;;;16.28;100.00;100226.75;20489821;28;20203;-73
2022/10/14 10:04:27;;;;;;;10.98;6.50;;;;;;;16.43;100.00;100226.09;20489645;28;20464;-70
2022/10/14 10:14:29;;;;;;;13.65;6.25;;;;;;;16.27;100.00;100211.81;20485414;28;20461;-72
2022/10/14 10:24:31;;;;;;;14.00;4.72;;;;;;;16.08;100.00;100199.38;20485219;28;20195;-71
2022/10/14 10:34:33;;;;;;;10.20;5.00;;;;;;;16.21;100.00;100197.09;20490403;28;20046;-71
2022/10/14 10:44:35;;;;;;;13.32;7.53;;;;;;;16.61;100.00;100161.84;20488238;28;20082;-71
2022/10/14 10:54:36;;;;;;;8.10;4.18;;;;;;;16.65;100.00;100158.16;20475574;28;20566;-72
2022/10/14 11:04:41;;;;;;;9.07;4.15;;;;;;;16.91;100.00;100140.28;20456324;28;20101;-72
2022/10/14 11:14:45;;;;;;;8.50;3.00;;;;;;;16.99;100.00;100130.22;20463043;28;20571;-72
2022/10/14 11:24:46;;;;;;;12.93;3.60;;;;;;;17.08;100.00;100129.78;20454165;28;20921;-72
2022/10/14 11:34:47;;;;;;;8.20;3.67;;;;;;;17.40;100.00;100114.19;20470331;28;20472;-72
2022/10/14 11:44:49;;;;;;;7.88;3.17;;;;;;;17.50;100.00;100098.72;20483979;29;20055;-72
2022/10/14 11:54:50;;;;;;;9.05;3.50;;;;;;;17.50;100.00;100082.81;20483401;28;20085;-72
2022/10/14 12:04:52;;;;;;;8.30;3.15;;;;;;;17.55;100.00;100080.81;20481990;29;20130;-72
2022/10/14 12:14:54;;;;;;;7.25;3.72;;;;;;;17.51;100.00;100074.78;20482288;29;20043;-72
2022/10/14 12:24:55;;;;;;;9.27;3.67;;;;;;;17.30;100.00;100071.44;20486331;28;20082;-72
2022/10/14 12:34:56;;;;;;;11.45;4.13;;;;;;;17.83;100.00;100059.13;20485599;28;20130;-72
2022/10/14 12:45:00;;;;;;;7.40;3.30;;;;;;;17.82;100.00;100052.09;20483567;28;20086;-72
2022/10/14 12:55:03;;;;;;;8.90;3.45;;;;;;;17.85;100.00;100054.59;20482340;29;20055;-72
2022/10/14 13:05:05;;;;;;;6.60;3.20;;;;;;;17.84;100.00;100045.78;20484650;28;20051;-72
2022/10/14 13:15:06;;;;;;;7.90;3.45;;;;;;;17.25;100.00;100057.56;20495576;29;20146;-71
2022/10/14 13:25:08;;;;;;;7.97;3.97;;;;;;;17.21;100.00;100058.63;20499053;28;20094;-73
2022/10/14 13:35:09;;;;;;;10.02;3.42;;;;;;;17.14;100.00;100041.34;20497787;28;20146;-70
2022/10/14 13:45:11;;;;;;;10.98;5.07;;;;;;;16.74;100.00;100040.59;20493939;29;20531;-71
2022/10/14 13:55:13;;;;;;;10.65;4.63;;;;;;;16.70;100.00;100020.47;20493091;28;20086;-72
2022/10/14 14:05:14;;;;;;;8.45;3.92;;;;;;;16.58;100.00;100026.34;20489916;28;20136;-71
2022/10/14 14:15:15;;;;;;;10.23;4.28;;;;;;;16.49;100.00;100025.00;20492010;28;20075;-71
2022/10/14 14:25:16;;;;;;;12.93;4.55;;;;;;;16.40;100.00;100004.28;20494957;28;20086;-70
2022/10/14 14:35:36;;;;;;;8.85;4.28;;;;;;;16.32;100.00;100007.25;20493565;28;20089;-71
2022/10/14 14:45:37;;;;;;;9.18;4.63;;;;;;;16.42;100.00;100007.69;20488054;29;20097;-71
2022/10/14 14:55:38;;;;;;;8.52;4.50;;;;;;;16.34;100.00;99994.84;20488134;29;20081;-71
2022/10/14 15:05:40;;;;;;;8.98;4.65;;;;;;;16.44;100.00;99990.00;20486829;28;20051;-72
2022/10/14 15:15:41;;;;;;;10.60;5.20;;;;;;;16.43;100.00;99969.75;20486932;29;20523;-72
2022/10/14 15:25:42;;;;;;;9.05;4.93;;;;;;;16.35;100.00;99959.56;20489296;28;20488;-72
2022/10/14 15:35:43;;;;;;;8.85;5.28;;;;;;;16.22;100.00;99954.91;20489293;28;20520;-72
2022/10/14 15:45:45;;;;;;;10.38;5.63;;;;;;;16.13;100.00;99957.03;20483060;28;20479;-70
2022/10/14 15:55:46;;;;;;;10.13;5.38;;;;;;;16.10;100.00;99945.78;20484041;29;20138;-71
2022/10/14 16:05:48;;;;;;;8.10;4.63;;;;;;;15.94;100.00;99936.81;20482515;28;20126;-71
2022/10/14 16:15:49;;;;;;;8.68;3.97;;;;;;;15.86;100.00;99924.84;20483208;29;20051;-70
2022/10/14 16:25:52;;;;;;;6.40;3.50;;;;;;;15.78;100.00;99920.81;20511059;23;20059;-81
2022/10/14 16:35:53;;;;;;;7.53;3.88;;;;;;;15.70;100.00;99915.03;20524634;28;20051;-80
2022/10/14 16:45:54;;;;;;;6.10;3.28;;;;;;;15.57;100.00;99907.63;20541205;28;20050;-81
2022/10/14 16:55:56;;;;;;;5.97;3.10;;;;;;;15.50;100.00;99900.03;20532098;28;20077;-82
2022/10/14 17:05:57;;;;;;;5.90;2.70;;;;;;;15.47;100.00;99897.53;20556971;28;20559;-81
2022/10/14 17:16:00;;;;;;;5.43;3.05;;;;;;;15.41;100.00;99890.75;20541175;28;20051;-81
2022/10/14 17:26:02;;;;;;;7.50;3.75;;;;;;;15.38;100.00;99898.81;20531233;28;20051;-81
2022/10/14 17:36:05;;;;;;;6.20;3.17;;;;;;;15.34;100.00;99894.59;20549859;28;20073;-81
2022/10/14 17:46:06;;;;;;;5.15;2.88;;;;;;;15.29;100.00;99894.78;20534904;23;20043;-78
2022/10/14 17:56:13;;;;;;;4.70;2.30;;;;;;;15.25;100.00;99905.53;20502648;28;20058;-79
2022/10/14 18:06:14;;;;;;;5.50;2.30;;;;;;;15.27;100.00;99898.41;20519321;28;20051;-79
2022/10/14 18:16:16;;;;;;;3.85;1.80;;;;;;;15.22;100.00;99880.13;20512298;28;20054;-79
2022/10/14 18:26:17;;;;;;;3.53;1.60;;;;;;;15.17;100.00;99871.56;20512212;28;20047;-79
2022/10/14 18:36:21;;;;;;;2.67;1.30;;;;;;;15.10;100.00;99865.72;20506739;28;20047;-78
2022/10/14 18:46:22;;;;;;;5.07;2.20;;;;;;;15.05;100.00;99853.66;20494278;28;20420;-78
2022/10/14 18:56:24;;;;;;;6.05;3.28;;;;;;;15.01;100.00;99849.44;20515456;28;20043;-79
2022/10/14 19:06:26;;;;;;;4.55;2.17;;;;;;;14.90;100.00;99847.25;20492864;28;20043;-79
2022/10/14 19:16:27;;;;;;;4.03;1.90;;;;;;;14.84;100.00;99829.03;20510583;28;20464;-80
2022/10/14 19:26:31;;;;;;;4.50;2.05;;;;;;;14.81;100.00;99805.47;20514546;28;20074;-79
2022/10/14 19:36:32;;;;;;;4.03;1.77;;;;;;;14.77;100.00;99804.72;20520658;28;20042;-79
2022/10/14 19:46:34;;;;;;;6.65;3.55;;;;;;;14.75;100.00;99774.06;20507374;28;20130;-79
2022/10/14 19:56:36;;;;;;;5.47;2.35;;;;;;;14.71;100.00;99773.38;20515331;28;20058;-81
2022/10/14 20:06:39;;;;;;;3.90;1.92;;;;;;;14.75;100.00;99758.28;20543798;28;20043;-79
2022/10/14 20:16:40;;;;;;;5.75;2.40;;;;;;;14.83;100.00;99746.47;20562710;28;20077;-80
2022/10/14 20:26:41;;;;;;;3.42;1.60;;;;;;;14.78;100.00;99742.34;20553013;28;20043;-80
2022/10/14 20:36:42;;;;;;;5.72;2.20;;;;;;;14.85;100.00;99726.19;20554397;28;20039;-79
2022/10/14 20:46:44;;;;;;;2.90;1.40;;;;;;;14.87;100.00;99721.72;20548201;28;20109;-80
2022/10/14 20:56:45;;;;;;;4.20;1.50;;;;;;;14.87;100.00;99716.44;20530782;28;20047;-79
2022/10/14 21:06:46;;;;;;;3.90;1.58;;;;;;;14.88;100.00;99701.47;20530147;28;20153;-80
2022/10/14 21:16:48;;;;;;;4.90;1.33;;;;;;;14.91;100.00;99690.81;20548633;28;20047;-80
2022/10/14 21:26:49;;;;;;;2.47;1.27;;;;;;;14.91;100.00;99669.72;20551292;28;20082;-80
2022/10/14 21:36:51;;;;;;;4.55;1.00;;;;;;;14.96;100.00;99651.91;20541063;28;20427;-80
2022/10/14 21:46:52;;;;;;;2.17;0.90;;;;;;;14.97;100.00;99648.34;20549315;28;20050;-80
2022/10/14 21:56:53;;;;;;;2.05;1.02;;;;;;;15.00;100.00;99640.31;20555013;28;20051;-81
2022/10/14 22:07:00;;;;;;;3.22;1.10;;;;;;;14.95;100.00;99629.13;20540846;28;20055;-80
2022/10/14 22:17:01;;;;;;;3.58;1.10;;;;;;;15.03;100.00;99624.31;20546225;28;20047;-80
2022/10/14 22:27:02;;;;;;;3.58;1.20;;;;;;;14.97;100.00;99613.22;20550231;28;20075;-80
2022/10/14 22:37:04;;;;;;;4.30;1.27;;;;;;;14.98;100.00;99601.75;20550376;28;20052;-81
2022/10/14 22:47:05;;;;;;;2.88;1.10;;;;;;;14.95;100.00;99591.31;20537074;28;20066;-81
2022/10/14 22:57:07;;;;;;;2.03;0.90;;;;;;;14.97;100.00;99579.81;20567064;28;20515;-82
2022/10/14 23:07:08;;;;;;;2.60;0.85;;;;;;;15.05;100.00;99576.81;20533630;29;20051;-81
2022/10/14 23:17:09;;;;;;;5.30;1.40;;;;;;;15.04;100.00;99570.69;20553186;28;20062;-81
2022/10/14 23:27:11;;;;;;;3.50;1.00;;;;;;;14.99;100.00;99572.66;20535025;28;20543;-81
2022/10/14 23:37:12;;;;;;;3.25;1.10;;;;;;;15.10;100.00;99559.84;20545699;28;20043;-81
2022/10/14 23:47:13;;;;;;;2.08;0.88;;;;;;;15.07;100.00;99562.63;20518638;23;20088;-74
2022/10/14 23:57:15;;;;;;;4.35;1.00;;;;;;;15.07;100.00;99559.97;20490141;28;20086;-74
